Time;durP1;ratioP1;P1;durP2;ratioP2;P2;SDS_P1;SDS_P2;PMS_P1;PMS_P2;Temp;Humidity;BMP_temperature;BMP_pressure;BME280_temperature;BME280_humidity;BME280_pressure;Samples;Min_cycle;Max_cycle;Signal;HPM_P1;HPM_P2
2021/12/13 00:02:24;;;;;;;5.17;4.17;;;3.80;86.00;;;1.89;96.09;96971.63;4965847;28;20035;-70
2021/12/13 00:04:56;;;;;;;5.88;4.20;;;3.70;86.30;;;1.88;96.52;96972.56;4971319;28;20560;-70
2021/12/13 00:07:25;;;;;;;7.20;4.50;;;3.70;86.00;;;1.85;96.10;96962.44;4971559;28;20043;-70
2021/12/13 00:09:54;;;;;;;7.70;4.40;;;3.70;86.30;;;1.86;95.98;96968.44;4953811;28;20474;-70
2021/12/13 00:12:29;;;;;;;5.72;4.50;;;3.70;86.50;;;1.86;96.15;96964.09;4938121;28;20030;-70
2021/12/13 00:14:55;;;;;;;5.88;4.10;;;3.70;86.50;;;1.87;96.07;96967.50;4954862;28;20406;-70
2021/12/13 00:17:44;;;;;;;5.28;4.32;;;3.80;86.30;;;1.88;97.76;96966.56;4953193;28;20031;-70
2021/12/13 00:20:44;;;;;;;5.97;4.40;;;3.70;86.50;;;1.87;97.27;96959.72;4971139;28;20053;-70
2021/12/13 00:23:29;;;;;;;9.35;4.75;;;3.60;86.60;;;1.85;97.40;96962.44;4969840;28;20057;-70
2021/12/13 00:25:57;;;;;;;6.20;4.78;;;3.70;86.80;;;1.86;96.62;96961.50;4939718;28;20038;-70
2021/12/13 00:28:24;;;;;;;5.82;4.25;;;3.80;86.80;;;1.87;97.17;96962.31;4970920;28;20055;-71
2021/12/13 00:31:29;;;;;;;6.88;4.60;;;3.80;86.50;;;1.90;97.74;96960.31;4953182;28;20039;-71
2021/12/13 00:34:39;;;;;;;5.68;4.35;;;3.80;86.60;;;1.91;98.29;96967.16;4977242;28;20093;-70
2021/12/13 00:37:39;;;;;;;6.18;4.50;;;3.80;86.60;;;1.91;97.93;96964.56;4970252;28;20042;-70
2021/12/13 00:40:19;;;;;;;5.77;4.50;;;3.80;86.80;;;1.92;98.47;96973.16;4936939;28;20047;-69
2021/12/13 00:42:57;;;;;;;5.65;4.18;;;3.80;86.60;;;1.90;97.51;96962.09;4922551;28;20058;-70
2021/12/13 00:45:27;;;;;;;6.97;4.72;;;3.80;86.90;;;1.93;97.31;96964.44;4968859;28;20038;-70
2021/12/13 00:47:53;;;;;;;6.25;4.75;;;3.90;86.80;;;1.94;97.32;96973.88;4937131;28;20438;-69
2021/12/13 00:50:23;;;;;;;7.25;4.32;;;3.90;86.70;;;1.92;97.67;96971.41;4950942;28;20130;-69
2021/12/13 00:52:49;;;;;;;5.72;4.50;;;3.80;86.80;;;1.93;97.73;96969.63;4972348;28;20097;-69
2021/12/13 00:55:24;;;;;;;6.32;4.65;;;3.90;86.90;;;1.94;98.83;96968.69;4969403;28;20031;-69
2021/12/13 00:58:03;;;;;;;5.82;4.57;;;3.80;86.90;;;1.95;99.11;96975.53;4952412;28;20421;-71
2021/12/13 01:00:36;;;;;;;8.00;4.72;;;3.80;87.00;;;1.95;99.10;96973.75;4968812;28;20093;-69
2021/12/13 01:03:22;;;;;;;6.43;4.72;;;3.90;86.80;;;1.98;98.87;96975.31;4969024;28;20039;-68
2021/12/13 01:06:36;;;;;;;7.25;4.75;;;3.90;86.90;;;1.97;99.65;96981.44;4968449;28;20304;-69
2021/12/13 01:10:05;;;;;;;5.88;4.72;;;3.80;87.10;;;1.98;100.00;96981.31;4970381;28;20213;-69
2021/12/13 01:12:31;;;;;;;6.50;4.47;;;3.90;87.10;;;1.98;98.50;96978.72;4967619;28;20054;-69
2021/12/13 01:15:11;;;;;;;6.13;4.88;;;3.90;87.10;;;2.01;98.52;96985.44;4953013;28;20043;-69
2021/12/13 01:17:53;;;;;;;6.25;4.45;;;3.90;87.00;;;2.01;98.92;96985.44;4953864;28;20035;-69
2021/12/13 01:20:43;;;;;;;6.35;5.13;;;3.90;87.00;;;2.02;99.38;96995.72;4968868;28;20094;-71
2021/12/13 01:23:16;;;;;;;7.40;5.07;;;3.90;87.10;;;2.04;98.70;96987.84;4968742;28;20034;-70
2021/12/13 01:26:00;;;;;;;6.85;4.40;;;4.00;87.00;;;2.06;98.73;96991.97;4967811;28;20035;-70
2021/12/13 01:28:34;;;;;;;8.10;4.72;;;4.10;86.70;;;2.06;99.00;96993.75;4945907;28;20039;-70
2021/12/13 01:31:10;;;;;;;6.40;5.07;;;4.10;86.90;;;2.07;99.26;96998.00;4953556;28;20043;-70
2021/12/13 01:33:39;;;;;;;6.43;5.10;;;4.00;87.10;;;2.07;99.05;96995.41;4951324;28;20035;-70
2021/12/13 01:36:06;;;;;;;6.43;4.90;;;4.00;87.10;;;2.08;98.79;96999.63;4968847;28;20047;-70
2021/12/13 01:38:41;;;;;;;7.28;4.80;;;4.00;86.80;;;2.09;99.21;96993.50;4948978;28;20456;-70
2021/12/13 01:41:19;;;;;;;6.78;4.93;;;4.10;87.10;;;2.09;99.40;96996.09;4937974;28;20038;-70
2021/12/13 01:43:59;;;;;;;6.50;4.78;;;4.10;86.70;;;2.11;99.60;97000.22;4952330;28;20097;-70
2021/12/13 01:46:24;;;;;;;6.30;4.93;;;4.10;86.90;;;2.10;99.05;96992.56;4968596;28;20522;-70
2021/12/13 01:48:52;;;;;;;5.80;4.80;;;4.10;86.80;;;2.11;99.25;96999.41;4968262;28;20038;-70
2021/12/13 01:51:26;;;;;;;7.88;4.90;;;4.10;86.80;;;2.11;99.29;96994.22;4949417;28;20073;-70
2021/12/13 01:54:06;;;;;;;8.70;5.50;;;4.10;86.90;;;2.12;99.74;96993.28;4948326;28;20067;-70
2021/12/13 01:56:55;;;;;;;6.05;4.78;;;4.00;87.00;;;2.10;99.18;96995.16;4968099;28;20082;-70
2021/12/13 01:59:49;;;;;;;6.65;4.80;;;4.00;87.00;;;2.07;100.00;96991.03;4968314;28;20585;-70
2021/12/13 02:02:35;;;;;;;6.43;4.35;;;4.00;87.30;;;2.10;100.00;96997.75;4969247;28;20039;-70
2021/12/13 02:05:12;;;;;;;6.97;4.50;;;4.00;87.10;;;2.10;99.99;96992.56;4938538;28;20069;-70
2021/12/13 02:07:44;;;;;;;6.68;4.78;;;4.00;87.30;;;2.12;99.93;96995.88;4964266;28;20058;-70
2021/12/13 02:10:15;;;;;;;5.88;4.25;;;4.10;87.00;;;2.13;100.00;96992.34;4969060;28;20038;-70
2021/12/13 02:12:43;;;;;;;5.82;4.40;;;4.10;86.60;;;2.14;99.33;97002.59;4950861;28;20081;-70
2021/12/13 02:17:54;;;;;;;6.68;4.65;;;4.10;86.80;;;2.13;99.25;96997.53;4954771;28;20078;-69
2021/12/13 02:20:35;;;;;;;6.07;4.85;;;4.10;87.10;;;2.13;99.96;96998.34;4952060;28;20197;-69
2021/12/13 02:23:01;;;;;;;5.40;4.43;;;4.10;87.00;;;2.12;99.56;96993.28;4967705;28;20114;-68
2021/12/13 02:25:51;;;;;;;6.38;4.57;;;4.10;87.00;;;2.13;100.00;96997.53;4953919;28;20057;-69
2021/12/13 02:28:20;;;;;;;6.65;4.63;;;4.10;86.70;;;2.12;99.86;97006.25;4958303;28;20038;-69
2021/12/13 02:31:00;;;;;;;6.63;4.70;;;4.10;87.10;;;2.10;100.00;96997.75;4973455;28;20035;-69
2021/12/13 02:33:43;;;;;;;5.53;4.68;;;4.10;86.90;;;2.08;100.00;96999.63;4936101;28;20058;-69
2021/12/13 02:36:22;;;;;;;7.05;4.68;;;4.00;87.20;;;2.09;100.00;97003.88;4937992;28;20039;-69
2021/12/13 02:38:50;;;;;;;7.10;4.80;;;4.10;87.10;;;2.07;99.66;97003.19;4962671;28;20195;-69
2021/12/13 02:41:19;;;;;;;6.47;4.63;;;4.00;87.30;;;2.08;100.00;96994.44;4955358;28;20530;-69
2021/12/13 02:43:50;;;;;;;6.15;4.60;;;4.00;87.30;;;2.08;99.92;96999.63;4955073;28;20050;-69
2021/12/13 02:46:16;;;;;;;5.05;4.00;;;4.00;87.30;;;2.10;99.57;97002.94;4971565;28;20035;-69
2021/12/13 02:48:55;;;;;;;5.97;4.68;;;4.10;86.90;;;2.10;100.00;97002.94;4956626;28;20038;-68
2021/12/13 02:51:29;;;;;;;5.07;4.07;;;4.10;87.00;;;2.12;100.00;97001.88;4959315;28;20039;-68
2021/12/13 02:54:00;;;;;;;6.18;4.10;;;4.20;86.80;;;2.11;100.00;97002.81;4972906;28;20332;-68
2021/12/13 02:56:31;;;;;;;4.53;3.95;;;4.10;86.60;;;2.11;99.57;97002.00;4955541;28;20039;-68
2021/12/13 02:58:57;;;;;;;5.60;3.78;;;4.10;86.90;;;2.09;99.75;96998.69;4952176;28;20171;-68
2021/12/13 03:01:29;;;;;;;4.45;4.00;;;4.10;87.00;;;2.09;100.00;96998.69;4970096;28;20061;-67
2021/12/13 03:03:59;;;;;;;4.82;3.95;;;4.10;87.10;;;2.08;100.00;96994.44;4971159;28;20499;-68
2021/12/13 03:06:30;;;;;;;4.78;4.20;;;4.10;87.10;;;2.05;100.00;96999.88;4939095;28;20093;-68
2021/12/13 03:09:00;;;;;;;4.78;4.03;;;4.00;87.40;;;2.02;100.00;97000.06;4983533;28;20133;-67
2021/12/13 03:11:32;;;;;;;5.40;4.23;;;3.90;87.50;;;2.00;100.00;97001.97;4954371;28;20069;-69
2021/12/13 03:14:27;;;;;;;5.22;4.00;;;3.90;87.60;;;2.01;100.00;96998.41;4971139;28;20058;-68
2021/12/13 03:17:33;;;;;;;5.18;3.97;;;3.90;87.60;;;2.00;100.00;97007.16;4951962;28;20039;-68
2021/12/13 03:20:21;;;;;;;5.68;4.40;;;3.90;87.50;;;2.00;100.00;97012.34;4970823;28;20047;-67
2021/12/13 03:23:24;;;;;;;5.25;4.28;;;3.90;87.70;;;2.00;100.00;97005.38;4952800;28;20035;-68
2021/12/13 03:26:20;;;;;;;5.28;4.05;;;3.90;87.80;;;1.98;100.00;97009.03;4968540;28;20043;-68
2021/12/13 03:29:16;;;;;;;5.53;4.43;;;3.90;88.00;;;1.99;100.00;97001.13;4970675;28;20105;-68
2021/12/13 03:31:45;;;;;;;5.70;4.38;;;3.90;87.80;;;1.98;100.00;97001.25;4952686;28;20122;-68
2021/12/13 03:34:22;;;;;;;5.97;4.10;;;3.90;88.30;;;2.00;100.00;97013.16;4969332;28;20035;-67
2021/12/13 03:37:13;;;;;;;4.97;4.10;;;4.00;87.70;;;2.01;100.00;97006.22;4954652;28;20039;-68
2021/12/13 03:39:43;;;;;;;5.97;4.47;;;4.00;87.60;;;2.01;100.00;97008.81;4970247;28;20514;-68
2021/12/13 03:42:36;;;;;;;5.60;4.28;;;4.00;87.70;;;2.02;100.00;97015.63;4938506;28;20043;-67
2021/12/13 03:45:16;;;;;;;4.60;4.07;;;4.00;87.50;;;2.00;100.00;97010.56;4970672;28;20114;-68
2021/12/13 03:47:44;;;;;;;5.30;4.32;;;3.90;87.70;;;2.00;100.00;97002.78;4969935;28;20058;-67
2021/12/13 03:50:15;;;;;;;4.82;4.25;;;4.00;87.80;;;2.00;100.00;97001.97;4970422;28;20256;-69
2021/12/13 03:52:44;;;;;;;5.85;4.00;;;4.00;88.30;;;1.99;100.00;97006.31;4954104;28;20057;-67
2021/12/13 03:55:11;;;;;;;6.22;4.70;;;3.90;88.20;;;2.02;100.00;97005.25;4959034;28;20559;-67
2021/12/13 03:57:41;;;;;;;5.90;4.60;;;4.00;88.10;;;2.03;100.00;97012.94;4953755;28;20422;-68
2021/12/13 04:00:08;;;;;;;6.32;4.50;;;4.10;88.00;;;2.04;100.00;97009.44;4954790;28;20039;-67
2021/12/13 04:02:36;;;;;;;5.93;4.90;;;4.10;87.70;;;2.08;100.00;97010.03;4953291;28;20586;-68
2021/12/13 04:05:09;;;;;;;5.32;4.60;;;4.10;87.70;;;2.09;100.00;97016.88;4970210;28;20035;-68
2021/12/13 04:07:41;;;;;;;4.88;4.25;;;4.10;87.70;;;2.11;100.00;97014.97;4950113;28;20050;-69
2021/12/13 04:10:30;;;;;;;5.18;4.25;;;4.10;87.90;;;2.13;100.00;97015.69;4972611;28;20082;-68
2021/12/13 04:12:59;;;;;;;5.93;4.60;;;4.20;87.80;;;2.15;100.00;97026.78;4953969;28;20058;-67
2021/12/13 04:15:56;;;;;;;6.05;4.72;;;4.10;87.80;;;2.13;100.00;97024.31;4937258;28;20494;-68
2021/12/13 04:21:50;;;;;;;5.82;4.97;;;4.20;87.90;;;2.18;100.00;97029.16;4973069;28;20109;-68
2021/12/13 04:24:27;;;;;;;6.25;4.70;;;4.20;87.90;;;2.19;100.00;97028.19;4969091;28;20039;-67
2021/12/13 04:26:56;;;;;;;5.95;5.00;;;4.10;87.70;;;2.19;100.00;97032.56;4955121;28;20581;-68
2021/12/13 04:29:26;;;;;;;5.55;4.95;;;4.10;87.80;;;2.18;100.00;97036.09;4952133;28;20219;-70
2021/12/13 04:31:52;;;;;;;6.13;5.40;;;4.10;87.90;;;2.19;100.00;97033.41;4969401;28;20050;-69
2021/12/13 04:34:21;;;;;;;6.72;5.90;;;4.20;87.80;;;2.21;100.00;97031.50;4941728;28;20122;-68
2021/12/13 04:36:49;;;;;;;7.05;5.60;;;4.20;87.70;;;2.23;100.00;97034.81;4953843;28;20467;-70
2021/12/13 04:39:28;;;;;;;6.32;5.68;;;4.30;87.50;;;2.26;100.00;97036.34;4968678;28;20053;-67
2021/12/13 04:42:01;;;;;;;7.05;5.65;;;4.30;87.50;;;2.27;100.00;97041.47;4949275;28;20031;-67
2021/12/13 04:44:43;;;;;;;15.23;11.02;;;4.30;87.30;;;2.27;100.00;97044.06;4952055;28;20051;-68
2021/12/13 04:47:30;;;;;;;23.38;17.40;;;4.30;87.40;;;2.32;100.00;97033.31;4951623;28;20144;-68
2021/12/13 04:50:14;;;;;;;13.40;8.10;;;4.40;87.50;;;2.30;100.00;97036.03;4955128;28;20458;-69
2021/12/13 04:52:39;;;;;;;7.80;7.00;;;4.30;87.50;;;2.31;100.00;97036.84;4963495;28;20549;-68
2021/12/13 04:55:25;;;;;;;8.05;6.15;;;4.30;87.50;;;2.32;100.00;97034.16;4983792;28;20041;-68
2021/12/13 04:57:53;;;;;;;8.32;6.30;;;4.40;87.40;;;2.32;100.00;97041.94;4941052;28;20078;-68
2021/12/13 05:00:20;;;;;;;7.50;6.57;;;4.40;87.50;;;2.33;100.00;97041.00;4952796;28;20039;-68
2021/12/13 05:02:49;;;;;;;7.82;6.70;;;4.30;87.30;;;2.33;100.00;97043.59;4953026;28;20035;-68
2021/12/13 05:05:17;;;;;;;7.28;6.10;;;4.30;87.40;;;2.30;100.00;97046.41;4971060;28;20037;-68
2021/12/13 05:07:44;;;;;;;7.90;6.82;;;4.20;87.80;;;2.30;100.00;97046.41;4968277;28;20054;-68
2021/12/13 05:10:10;;;;;;;8.35;6.90;;;4.30;87.80;;;2.30;100.00;97046.41;4953046;28;20114;-68
2021/12/13 05:12:36;;;;;;;9.35;8.10;;;4.30;87.70;;;2.30;100.00;97056.81;4968528;28;20550;-69
2021/12/13 05:15:08;;;;;;;14.68;10.25;;;4.30;87.60;;;2.30;100.00;97051.59;4936300;28;20046;-68
2021/12/13 05:17:45;;;;;;;10.43;8.85;;;4.20;87.90;;;2.27;100.00;97046.66;4959748;28;20835;-68
2021/12/13 05:20:28;;;;;;;9.43;7.53;;;4.10;88.10;;;2.28;100.00;97056.09;4944888;28;20049;-69
2021/12/13 05:23:09;;;;;;;7.63;6.40;;;4.20;88.40;;;2.29;100.00;97060.34;4933578;28;20531;-69
2021/12/13 05:25:48;;;;;;;6.95;6.25;;;4.30;88.00;;;2.29;100.00;97049.13;4939526;28;20466;-68
2021/12/13 05:28:44;;;;;;;6.88;5.90;;;4.20;88.10;;;2.28;100.00;97053.50;4953518;28;20101;-71
2021/12/13 05:31:16;;;;;;;20.88;14.38;;;4.30;88.00;;;2.31;100.00;97055.84;4940013;28;20046;-69
2021/12/13 05:33:43;;;;;;;14.35;10.73;;;4.30;87.90;;;2.29;100.00;97052.56;4951558;28;20200;-69
2021/12/13 05:36:19;;;;;;;10.95;7.40;;;4.30;88.00;;;2.32;100.00;97060.09;4952229;28;20054;-68
2021/12/13 05:38:46;;;;;;;16.25;11.80;;;4.30;87.90;;;2.33;100.00;97056.56;4953461;28;20583;-69
2021/12/13 05:41:25;;;;;;;10.80;8.20;;;4.30;87.90;;;2.33;100.00;97051.38;4968203;28;20458;-69
2021/12/13 05:43:55;;;;;;;8.43;6.93;;;4.30;88.10;;;2.31;100.00;97055.84;4968295;28;20109;-68
2021/12/13 05:46:39;;;;;;;13.80;10.48;;;4.30;88.10;;;2.34;100.00;97047.84;4968065;28;20035;-70
2021/12/13 05:49:09;;;;;;;11.82;8.95;;;4.30;88.00;;;2.33;100.00;97051.38;4951967;28;20058;-69
2021/12/13 05:51:40;;;;;;;10.02;8.43;;;4.20;88.50;;;2.33;100.00;97048.78;4967453;28;20506;-68
2021/12/13 05:54:17;;;;;;;9.38;6.90;;;4.30;88.50;;;2.38;100.00;97046.66;4951862;28;20070;-68
2021/12/13 05:56:59;;;;;;;7.18;5.90;;;4.40;88.10;;;2.38;100.00;97051.84;4984496;28;20059;-69
2021/12/13 05:59:31;;;;;;;7.50;6.00;;;4.40;87.90;;;2.39;100.00;97056.09;4967347;28;20039;-69
2021/12/13 06:02:38;;;;;;;9.32;6.00;;;4.40;88.10;;;2.40;100.00;97060.34;4967929;28;20508;-69
2021/12/13 06:05:16;;;;;;;6.93;6.10;;;4.40;88.10;;;2.40;100.00;97056.94;4966210;28;20522;-69
2021/12/13 06:07:43;;;;;;;7.57;6.32;;;4.30;88.50;;;2.41;100.00;97059.41;4949194;28;20046;-66
2021/12/13 06:10:15;;;;;;;7.40;6.22;;;4.40;88.30;;;2.41;100.00;97067.19;4934765;28;20035;-66
2021/12/13 06:12:55;;;;;;;6.97;5.53;;;4.40;88.40;;;2.42;100.00;97061.06;4936208;28;20042;-66
2021/12/13 06:15:41;;;;;;;10.68;8.60;;;4.40;88.40;;;2.45;100.00;97060.00;4952338;28;20073;-64
2021/12/13 06:18:44;;;;;;;25.27;16.02;;;4.50;88.70;;;2.46;100.00;97069.44;4951189;28;20268;-65
2021/12/13 06:21:23;;;;;;;16.40;12.18;;;4.40;88.50;;;2.46;100.00;97067.66;4955830;28;20066;-68
2021/12/13 06:23:49;;;;;;;13.30;11.27;;;4.40;88.50;;;2.49;100.00;97073.56;4967274;28;20034;-67
2021/12/13 06:26:15;;;;;;;9.55;8.27;;;4.40;88.40;;;2.49;100.00;97068.38;4967538;28;20609;-70
2021/12/13 06:28:52;;;;;;;9.18;7.88;;;4.50;88.20;;;2.51;100.00;97069.13;4967830;28;20035;-67
2021/12/13 06:31:19;;;;;;;10.15;8.38;;;4.50;88.00;;;2.52;100.00;97075.97;4951576;28;20049;-68
2021/12/13 06:33:58;;;;;;;12.25;8.70;;;4.60;88.00;;;2.50;100.00;97083.88;4951058;28;20042;-64
2021/12/13 06:36:34;;;;;;;11.48;9.48;;;4.40;88.20;;;2.47;100.00;97090.09;4932763;28;20131;-72
2021/12/13 06:39:11;;;;;;;13.20;9.20;;;4.30;88.50;;;2.49;100.00;97087.41;4948844;28;20035;-69
2021/12/13 06:41:51;;;;;;;11.48;8.63;;;4.50;88.20;;;2.50;100.00;97088.25;4932542;28;20134;-68
2021/12/13 06:44:30;;;;;;;13.25;8.60;;;4.40;88.00;;;2.50;100.00;97093.44;4948929;28;20047;-73
2021/12/13 06:47:09;;;;;;;11.50;9.55;;;4.50;87.70;;;2.51;100.00;97089.91;4951303;28;20039;-72
2021/12/13 06:49:47;;;;;;;13.43;9.52;;;4.50;87.60;;;2.53;100.00;97098.41;4966690;28;20086;-67
2021/12/13 06:52:12;;;;;;;12.50;9.38;;;4.50;87.40;;;2.52;100.00;97086.34;4967456;28;20049;-64
2021/12/13 06:55:00;;;;;;;14.90;12.70;;;4.50;87.70;;;2.55;100.00;97102.53;4968807;28;20208;-65
2021/12/13 06:57:43;;;;;;;17.85;12.85;;;4.60;88.10;;;2.56;100.00;97093.78;4966768;28;20458;-69
2021/12/13 07:00:21;;;;;;;43.25;33.38;;;4.60;87.80;;;2.58;100.00;97101.47;4950902;28;20043;-68
2021/12/13 07:03:03;;;;;;;12.80;10.23;;;4.60;88.20;;;2.58;100.00;97101.47;4969135;28;20086;-68
2021/12/13 07:05:45;;;;;;;10.88;9.73;;;4.50;87.90;;;2.57;100.00;97105.84;4966694;28;20042;-69
2021/12/13 07:08:47;;;;;;;9.27;7.50;;;4.50;88.10;;;2.58;100.00;97111.88;4953199;28;20039;-70
2021/12/13 07:11:20;;;;;;;10.23;8.32;;;4.60;87.70;;;2.59;100.00;97124.72;4946490;28;20043;-69
2021/12/13 07:14:06;;;;;;;10.75;9.15;;;4.60;87.60;;;2.58;100.00;97115.28;4966770;28;20043;-69
2021/12/13 07:16:34;;;;;;;11.05;9.55;;;4.50;87.80;;;2.60;100.00;97130.75;4967743;28;20061;-69
2021/12/13 07:19:33;;;;;;;11.40;9.32;;;4.60;87.90;;;2.61;100.00;97128.03;4926943;28;20524;-69
2021/12/13 07:22:06;;;;;;;11.77;9.02;;;4.70;87.50;;;2.62;100.00;97134.06;4949763;28;20050;-68
2021/12/13 07:24:42;;;;;;;12.80;9.85;;;4.70;87.30;;;2.64;100.00;97137.38;4939348;28;20035;-69
2021/12/13 07:27:33;;;;;;;11.23;9.13;;;4.70;87.20;;;2.67;100.00;97142.34;4955106;28;20051;-68
2021/12/13 07:30:22;;;;;;;14.07;10.07;;;4.70;87.20;;;2.66;100.00;97151.91;4965234;28;20447;-68
2021/12/13 07:33:01;;;;;;;15.13;9.93;;;4.70;87.30;;;2.66;100.00;97143.28;4961300;28;20418;-71
2021/12/13 07:35:55;;;;;;;13.90;9.32;;;4.70;87.30;;;2.68;100.00;97144.00;4970270;28;20144;-72
2021/12/13 07:38:28;;;;;;;13.35;10.57;;;4.70;87.40;;;2.69;100.00;97140.44;4968622;28;20360;-71
2021/12/13 07:41:01;;;;;;;15.02;10.88;;;4.70;87.30;;;2.70;100.00;97142.94;4953091;28;20037;-70
2021/12/13 07:43:32;;;;;;;17.30;13.60;;;4.70;87.40;;;2.69;100.00;97145.63;4945384;28;20046;-67
2021/12/13 07:46:02;;;;;;;19.00;13.85;;;4.60;87.90;;;2.70;100.00;97142.94;4953338;28;20579;-65
2021/12/13 07:48:41;;;;;;;17.45;14.27;;;4.70;87.60;;;2.70;100.00;97142.94;4971421;28;20073;-66
2021/12/13 07:51:40;;;;;;;17.40;12.95;;;4.70;87.50;;;2.70;100.00;97147.28;4971217;28;20039;-67
2021/12/13 07:54:13;;;;;;;18.60;12.75;;;4.70;87.80;;;2.69;100.00;97150.84;4967670;28;20043;-66
2021/12/13 07:56:50;;;;;;;19.80;14.10;;;4.70;87.70;;;2.71;100.00;97148.94;4969430;28;20581;-67
2021/12/13 07:59:22;;;;;;;21.77;14.60;;;4.70;87.60;;;2.72;100.00;97146.25;4969790;28;20051;-66
2021/12/13 08:02:09;;;;;;;16.67;12.52;;;4.80;87.60;;;2.76;100.00;97149.47;4970012;28;20841;-68
2021/12/13 08:04:41;;;;;;;15.07;11.00;;;4.80;87.40;;;2.79;100.00;97151.81;4953396;28;20050;-66
2021/12/13 08:07:09;;;;;;;14.88;11.30;;;4.80;87.30;;;2.81;100.00;97160.31;4969624;28;20117;-66
2021/12/13 08:09:44;;;;;;;12.73;10.65;;;4.90;87.40;;;2.83;100.00;97153.25;4968050;28;20577;-66
2021/12/13 08:12:22;;;;;;;13.10;10.57;;;4.90;87.50;;;2.88;100.00;97153.72;4968374;28;20525;-67
2021/12/13 08:14:49;;;;;;;16.33;11.02;;;5.00;87.40;;;2.88;100.00;97151.13;4968536;28;20086;-68
2021/12/13 08:17:23;;;;;;;14.57;11.85;;;4.90;87.50;;;2.90;100.00;97141.44;4952222;28;20458;-67
2021/12/13 08:20:04;;;;;;;14.77;11.23;;;5.00;87.20;;;2.94;100.00;97149.81;4952055;28;20030;-69
2021/12/13 08:22:30;;;;;;;14.25;10.25;;;5.00;87.30;;;2.97;100.00;97160.84;4966827;28;20115;-67
2021/12/13 08:25:02;;;;;;;12.38;10.10;;;5.10;87.10;;;3.02;100.00;97157.88;4952587;28;20043;-68
2021/12/13 08:27:32;;;;;;;14.63;11.70;;;5.10;86.90;;;3.06;100.00;97154.94;4951821;28;20395;-67
2021/12/13 08:30:24;;;;;;;13.02;11.02;;;5.20;86.90;;;3.11;100.00;97157.16;4968676;28;20034;-67
2021/12/13 08:33:14;;;;;;;12.43;9.75;;;5.30;86.90;;;3.16;100.00;97159.41;4971150;28;20031;-65
2021/12/13 08:35:59;;;;;;;12.60;9.60;;;5.40;86.70;;;3.21;100.00;97165.13;4967873;28;20043;-66
2021/12/13 08:38:31;;;;;;;12.50;10.02;;;5.40;86.40;;;3.25;100.00;97169.13;4967285;28;20533;-65
2021/12/13 08:41:00;;;;;;;11.48;9.85;;;5.40;86.40;;;3.30;100.00;97169.59;4961713;28;20415;-69
2021/12/13 08:43:51;;;;;;;12.20;10.23;;;5.50;86.40;;;3.36;100.00;97166.53;4970176;28;20066;-70
2021/12/13 08:46:43;;;;;;;10.23;8.70;;;5.60;86.30;;;3.42;100.00;97162.66;4953776;28;20043;-70
2021/12/13 08:49:30;;;;;;;11.13;9.10;;;5.60;86.00;;;3.45;100.00;97168.44;4969324;28;20066;-68
2021/12/13 08:52:13;;;;;;;11.50;9.40;;;5.60;85.90;;;3.48;100.00;97170.78;4948976;28;20039;-65
2021/12/13 08:55:11;;;;;;;11.20;10.00;;;5.60;86.20;;;3.55;100.00;97165.94;4950376;28;20144;-64
2021/12/13 08:57:46;;;;;;;11.13;9.30;;;5.80;86.20;;;3.61;100.00;97163.66;4955903;28;20046;-66
2021/12/13 09:00:12;;;;;;;12.18;9.40;;;5.90;85.70;;;3.68;100.00;97177.88;4932148;28;1040306;-67
2021/12/13 09:02:41;;;;;;;10.60;9.30;;;6.00;85.50;;;3.75;100.00;97166.97;4966393;28;20035;-64
2021/12/13 09:05:14;;;;;;;10.77;9.15;;;6.10;85.00;;;3.82;100.00;97165.53;4969045;28;20544;-74
2021/12/13 09:08:10;;;;;;;10.77;9.55;;;6.10;84.50;;;3.92;100.00;97166.50;4952535;28;20035;-70
2021/12/13 09:10:54;;;;;;;11.00;9.00;;;6.40;84.60;;;4.01;100.00;97163.16;4968377;28;20450;-66
2021/12/13 09:13:36;;;;;;;10.68;9.15;;;6.50;84.10;;;4.11;100.00;97173.66;4969496;28;20126;-63
2021/12/13 09:16:02;;;;;;;9.95;8.70;;;6.60;83.80;;;4.18;100.00;97175.66;4952856;28;20531;-64
2021/12/13 09:18:28;;;;;;;9.82;8.63;;;6.70;83.60;;;4.27;100.00;97164.47;4968365;28;20122;-64
2021/12/13 09:20:55;;;;;;;10.02;8.68;;;6.80;83.40;;;4.36;100.00;97172.53;4933693;28;20122;-64
2021/12/13 09:23:40;;;;;;;10.05;8.30;;;6.80;83.00;;;4.45;100.00;97170.00;4949229;28;20049;-64
2021/12/13 09:26:11;;;;;;;11.00;9.02;;;7.00;83.20;;;4.53;100.00;97169.38;4944107;28;20035;-64
2021/12/13 09:28:44;;;;;;;9.30;8.40;;;6.90;83.00;;;4.57;100.00;97176.00;4954461;28;20066;-66
2021/12/13 09:31:17;;;;;;;10.23;9.00;;;6.90;82.80;;;4.60;100.00;97176.56;4951611;28;20105;-69
2021/12/13 09:33:52;;;;;;;11.50;9.18;;;6.90;82.90;;;4.66;100.00;97177.00;4940405;28;20057;-68
2021/12/13 09:36:23;;;;;;;9.07;8.10;;;6.90;82.80;;;4.69;100.00;97179.34;4951986;28;20065;-71
2021/12/13 09:38:54;;;;;;;;;;;7.00;82.90;;;4.72;99.74;97190.34;4952846;28;20486;-68
2021/12/13 09:41:52;;;;;;;10.27;9.27;;;7.00;82.70;;;4.77;99.99;97185.63;4968385;28;19922;-69
2021/12/13 09:44:23;;;;;;;8.35;7.50;;;7.10;82.90;;;4.78;99.88;97184.66;4967109;28;20041;-69
2021/12/13 09:47:03;;;;;;;8.73;7.75;;;7.00;83.20;;;4.81;100.00;97187.00;4969296;28;20101;-69
2021/12/13 09:49:38;;;;;;;8.50;7.68;;;7.00;83.10;;;4.81;100.00;97184.41;4968116;28;20046;-72
2021/12/13 09:52:30;;;;;;;7.10;6.40;;;7.00;82.80;;;4.81;99.66;97184.41;4968352;28;20034;-65
2021/12/13 09:55:36;;;;;;;7.55;6.80;;;7.00;82.90;;;4.84;100.00;97178.94;4968217;28;20274;-66
2021/12/13 09:58:24;;;;;;;8.82;7.25;;;7.00;83.00;;;4.84;100.00;97183.31;4966795;28;20031;-67
2021/12/13 10:00:52;;;;;;;7.07;6.30;;;7.00;83.10;;;4.84;100.00;97183.31;4951274;28;20631;-66
2021/12/13 10:03:52;;;;;;;7.75;6.95;;;7.00;83.20;;;4.85;100.00;97180.59;4967792;28;20422;-66
2021/12/13 10:06:38;;;;;;;7.28;6.53;;;7.00;83.60;;;4.88;99.73;97164.69;4966372;28;20050;-72
2021/12/13 10:09:10;;;;;;;7.55;6.82;;;7.10;83.30;;;4.92;100.00;97166.06;4952203;28;20045;-69
2021/12/13 10:11:46;;;;;;;6.95;6.35;;;7.20;82.70;;;5.01;99.64;97161.06;4967465;28;20582;-69
2021/12/13 10:14:12;;;;;;;7.97;7.18;;;7.40;82.60;;;5.10;99.64;97158.50;4966900;28;20030;-69
2021/12/13 10:16:41;;;;;;;18.67;16.60;;;7.60;82.20;;;5.20;100.00;97153.31;4951563;28;20038;-69
2021/12/13 10:19:12;;;;;;;12.90;9.85;;;7.80;82.60;;;5.34;100.00;97155.59;4967647;28;20039;-71
2021/12/13 10:21:41;;;;;;;9.43;8.43;;;8.00;81.50;;;5.45;99.92;97152.09;4965304;28;20034;-68
2021/12/13 10:24:25;;;;;;;12.98;11.57;;;8.10;81.20;;;5.62;98.78;97148.03;4956141;28;20117;-68
2021/12/13 10:26:52;;;;;;;8.82;7.47;;;8.40;80.20;;;5.73;99.29;97150.53;4966850;28;20027;-69
2021/12/13 10:29:19;;;;;;;11.23;8.80;;;8.50;79.50;;;5.83;99.09;97144.38;4950798;28;20039;-69
2021/12/13 10:32:19;;;;;;;9.60;8.50;;;8.60;79.00;;;6.00;98.07;97144.72;4968824;28;20054;-62
2021/12/13 10:34:51;;;;;;;7.10;6.40;;;8.80;78.50;;;6.10;97.12;97143.75;4981334;28;20025;-64
2021/12/13 10:37:37;;;;;;;9.18;8.13;;;8.80;78.50;;;6.22;96.86;97146.28;4967258;28;20038;-69
2021/12/13 10:40:31;;;;;;;6.10;5.50;;;9.00;78.20;;;6.31;96.18;97145.44;4967100;28;20043;-69
2021/12/13 10:43:05;;;;;;;5.03;4.53;;;9.00;78.00;;;6.33;95.76;97133.88;4968193;28;20537;-67
2021/12/13 10:45:39;;;;;;;5.43;4.90;;;9.10;77.30;;;6.43;95.54;97139.13;4968291;28;20046;-68
2021/12/13 10:48:07;;;;;;;6.07;5.43;;;9.10;77.00;;;6.49;96.02;97137.75;4972303;28;20126;-68
2021/12/13 10:50:50;;;;;;;7.07;5.40;;;9.20;77.30;;;6.57;95.06;97138.72;4971255;28;20058;-69
2021/12/13 10:53:18;;;;;;;5.80;5.18;;;9.30;76.60;;;6.63;95.30;97135.53;4970916;28;20035;-63
2021/12/13 10:55:53;;;;;;;5.38;4.85;;;9.30;76.60;;;6.67;94.11;97131.69;4970444;28;20043;-66
2021/12/13 10:58:23;;;;;;;6.10;5.40;;;9.20;76.80;;;6.72;94.10;97133.88;4970274;28;20050;-66
2021/12/13 11:01:12;;;;;;;6.00;5.40;;;9.30;76.70;;;6.75;94.38;97129.19;4954768;28;20043;-68
2021/12/13 11:03:38;;;;;;;6.30;5.70;;;9.30;77.20;;;6.75;94.49;97123.13;4955340;28;20047;-67
2021/12/13 11:06:04;;;;;;;6.22;5.63;;;9.20;77.40;;;6.79;94.47;97124.53;4971164;28;20472;-66
2021/12/13 11:08:30;;;;;;;6.13;5.35;;;9.30;77.20;;;6.84;94.01;97126.72;4953165;28;20447;-65
2021/12/13 11:11:06;;;;;;;7.95;5.55;;;9.40;76.60;;;6.90;93.01;97123.53;4954408;28;20320;-65
2021/12/13 11:13:36;;;;;;;5.95;5.30;;;9.50;76.50;;;6.89;93.28;97125.31;4950697;28;20689;-71
2021/12/13 11:16:18;;;;;;;8.38;6.00;;;9.50;76.20;;;6.94;92.78;97124.91;4969493;28;20041;-70